createdAt,value
2024-04-30T00:00:39.258Z,3.65
2024-04-30T00:03:06.563Z,1.80
2024-04-30T00:05:34.033Z,1.20
2024-04-30T00:08:01.431Z,1.60
2024-04-30T00:10:28.733Z,1.50
2024-04-30T00:12:56.049Z,1.80
2024-04-30T00:15:23.274Z,1.80
2024-04-30T00:17:50.576Z,1.23
2024-04-30T00:20:17.895Z,1.10
2024-04-30T00:22:45.203Z,1.13
2024-04-30T00:25:12.579Z,1.30
2024-04-30T00:27:40.596Z,1.42
2024-04-30T00:30:08.786Z,1.33
2024-04-30T00:32:36.277Z,1.92
2024-04-30T00:35:03.587Z,1.55
2024-04-30T00:37:31.008Z,1.30
2024-04-30T00:39:58.294Z,1.67
2024-04-30T00:42:25.591Z,1.38
2024-04-30T00:44:52.966Z,1.42
2024-04-30T00:47:20.405Z,1.25
2024-04-30T00:49:47.760Z,1.40
2024-04-30T00:52:15.385Z,1.42
2024-04-30T00:54:42.639Z,1.73
2024-04-30T00:57:09.956Z,1.10
2024-04-30T00:59:37.210Z,1.15
2024-04-30T01:02:04.935Z,1.80
2024-04-30T01:04:32.297Z,1.65
2024-04-30T01:06:59.573Z,1.40
2024-04-30T01:09:26.814Z,1.65
2024-04-30T01:11:54.111Z,1.20
2024-04-30T01:14:21.349Z,1.30
2024-04-30T01:16:48.678Z,1.30
2024-04-30T01:19:16.056Z,1.30
2024-04-30T01:21:43.340Z,1.65
2024-04-30T01:24:10.565Z,2.35
2024-04-30T01:26:37.851Z,2.55
2024-04-30T01:29:05.025Z,1.77
2024-04-30T01:31:32.329Z,1.80
2024-04-30T01:33:59.607Z,1.40
2024-04-30T01:36:26.952Z,1.10
2024-04-30T01:38:54.191Z,1.42
2024-04-30T01:41:21.425Z,1.30
2024-04-30T01:43:48.622Z,1.45
2024-04-30T01:46:15.873Z,1.38
2024-04-30T01:48:43.269Z,0.95
2024-04-30T01:51:10.519Z,1.65
2024-04-30T01:53:37.775Z,0.90
2024-04-30T01:56:05.329Z,1.00
2024-04-30T01:58:32.604Z,1.02
2024-04-30T02:01:00.042Z,1.10
2024-04-30T02:03:27.468Z,1.45
2024-04-30T02:05:54.725Z,1.27
2024-04-30T02:08:21.962Z,1.10
2024-04-30T02:10:49.328Z,1.40
2024-04-30T02:13:16.672Z,1.02
2024-04-30T02:15:43.969Z,1.52
2024-04-30T02:18:11.273Z,1.50
2024-04-30T02:20:38.584Z,1.75
2024-04-30T02:23:05.790Z,1.05
2024-04-30T02:25:33.222Z,1.75
2024-04-30T02:28:00.551Z,0.75
2024-04-30T02:30:46.416Z,1.00
2024-04-30T02:33:33.266Z,1.08
2024-04-30T02:36:00.892Z,1.00
2024-04-30T02:38:28.144Z,1.10
2024-04-30T02:40:55.368Z,1.55
2024-04-30T02:43:22.622Z,1.40
2024-04-30T02:45:49.885Z,1.25
2024-04-30T02:48:17.152Z,1.58
2024-04-30T02:50:44.486Z,1.23
2024-04-30T02:53:11.705Z,1.10
2024-04-30T02:55:38.979Z,1.13
2024-04-30T02:58:06.199Z,1.25
2024-04-30T03:00:33.563Z,1.23
2024-04-30T03:03:00.766Z,0.98
2024-04-30T03:05:28.105Z,0.88
2024-04-30T03:07:55.312Z,1.25
2024-04-30T03:10:22.603Z,1.05
2024-04-30T03:12:50.463Z,1.42
2024-04-30T03:15:18.158Z,1.23
2024-04-30T03:17:49.589Z,1.45
2024-04-30T03:20:17.850Z,1.20
2024-04-30T03:22:48.934Z,1.33
2024-04-30T03:25:16.288Z,1.30
2024-04-30T03:27:43.475Z,1.10
2024-04-30T03:30:10.997Z,1.27
2024-04-30T03:32:38.244Z,1.25
2024-04-30T03:35:06.195Z,1.40
2024-04-30T03:37:33.585Z,1.55
2024-04-30T03:40:00.935Z,1.52
2024-04-30T03:42:29.136Z,1.10
2024-04-30T03:44:56.364Z,0.95
2024-04-30T03:47:23.709Z,1.58
2024-04-30T03:49:51.074Z,1.60
2024-04-30T03:52:18.700Z,1.30
2024-04-30T03:54:46.013Z,1.73
2024-04-30T03:57:13.783Z,1.40
2024-04-30T03:59:41.037Z,1.50
2024-04-30T04:02:09.063Z,0.82
2024-04-30T04:04:39.262Z,1.40
2024-04-30T04:07:06.660Z,1.85
2024-04-30T04:09:33.892Z,1.48
2024-04-30T04:12:19.571Z,1.27
2024-04-30T04:14:48.657Z,1.20
2024-04-30T04:17:17.705Z,1.20
2024-04-30T04:19:46.118Z,1.50
2024-04-30T04:22:13.407Z,1.50
2024-04-30T04:24:40.677Z,1.25
2024-04-30T04:27:08.158Z,1.45
2024-04-30T04:29:35.493Z,0.80
2024-04-30T04:32:02.770Z,1.30
2024-04-30T04:34:30.184Z,3.28
2024-04-30T04:36:57.453Z,1.95
2024-04-30T04:39:24.776Z,2.00
2024-04-30T04:41:52.034Z,1.63
2024-04-30T04:44:19.285Z,1.45
2024-04-30T04:46:46.588Z,1.42
2024-04-30T04:49:13.979Z,1.00
2024-04-30T04:51:41.246Z,1.45
2024-04-30T04:54:08.508Z,1.33
2024-04-30T04:56:35.692Z,1.27
2024-04-30T04:59:02.926Z,1.83
2024-04-30T05:01:30.140Z,1.90
2024-04-30T05:03:57.560Z,1.27
2024-04-30T05:06:24.894Z,1.95
2024-04-30T05:08:52.154Z,1.75
2024-04-30T05:11:19.383Z,1.95
2024-04-30T05:13:46.717Z,1.67
2024-04-30T05:16:14.036Z,1.75
2024-04-30T05:18:41.311Z,2.08
2024-04-30T05:21:08.846Z,1.80
2024-04-30T05:23:36.091Z,1.88
2024-04-30T05:26:03.307Z,2.20
2024-04-30T05:28:30.699Z,1.85
2024-04-30T05:30:57.972Z,2.00
2024-04-30T05:33:25.366Z,1.50
2024-04-30T05:35:52.711Z,1.83
2024-04-30T05:38:19.949Z,1.88
2024-04-30T05:40:47.186Z,1.88
2024-04-30T05:43:17.209Z,3.13
2024-04-30T05:45:44.602Z,2.05
2024-04-30T05:48:11.901Z,2.22
2024-04-30T05:50:39.156Z,1.63
2024-04-30T05:53:09.714Z,1.92
2024-04-30T05:55:37.093Z,2.17
2024-04-30T05:58:04.795Z,2.22
2024-04-30T06:00:32.203Z,2.33
2024-04-30T06:03:03.420Z,1.35
2024-04-30T06:05:31.652Z,2.25
2024-04-30T06:07:58.924Z,1.73
2024-04-30T06:10:26.294Z,3.00
2024-04-30T06:12:53.579Z,1.70
2024-04-30T06:15:20.814Z,1.17
2024-04-30T06:17:48.171Z,1.67
2024-04-30T06:20:15.461Z,1.33
2024-04-30T06:22:42.793Z,2.03
2024-04-30T06:25:10.095Z,2.53
2024-04-30T06:27:37.350Z,2.10
2024-04-30T06:30:05.105Z,2.53
2024-04-30T06:32:32.449Z,2.20
2024-04-30T06:34:59.828Z,1.90
2024-04-30T06:37:27.163Z,1.88
2024-04-30T06:39:54.462Z,1.98
2024-04-30T06:42:21.658Z,1.50
2024-04-30T06:44:48.931Z,2.53
2024-04-30T06:47:16.167Z,1.92
2024-04-30T06:49:43.427Z,2.25
2024-04-30T06:52:10.652Z,2.10
2024-04-30T06:54:37.983Z,2.45
2024-04-30T06:57:05.502Z,1.95
2024-04-30T06:59:33.581Z,2.22
2024-04-30T07:02:00.811Z,3.10
2024-04-30T07:04:28.182Z,2.28
2024-04-30T07:06:55.474Z,2.10
2024-04-30T07:09:22.879Z,4.03
2024-04-30T07:11:50.055Z,2.13
2024-04-30T07:14:17.281Z,2.35
2024-04-30T07:16:52.071Z,2.72
2024-04-30T07:19:24.215Z,2.58
2024-04-30T07:21:51.473Z,2.13
2024-04-30T07:24:18.713Z,2.10
2024-04-30T07:26:45.890Z,1.58
2024-04-30T07:29:13.243Z,1.92
2024-04-30T07:31:40.933Z,2.08
2024-04-30T07:34:08.607Z,2.25
2024-04-30T07:36:36.113Z,2.38
2024-04-30T07:39:03.651Z,2.63
2024-04-30T07:41:30.834Z,1.77
2024-04-30T07:43:58.131Z,2.10
2024-04-30T07:46:25.426Z,1.83
2024-04-30T07:48:54.628Z,2.00
2024-04-30T07:51:22.174Z,1.60
2024-04-30T07:53:49.396Z,2.65
2024-04-30T07:56:16.599Z,2.10
2024-04-30T07:58:44.037Z,2.35
2024-04-30T08:01:11.389Z,2.45
2024-04-30T08:03:38.782Z,1.60
2024-04-30T08:06:14.643Z,2.40
2024-04-30T08:08:47.691Z,1.70
2024-04-30T08:11:15.727Z,2.70
2024-04-30T08:13:45.480Z,3.33
2024-04-30T08:16:13.220Z,3.22
2024-04-30T08:18:40.693Z,1.88
2024-04-30T08:21:08.272Z,2.17
2024-04-30T08:23:36.092Z,1.95
2024-04-30T08:26:03.319Z,2.08
2024-04-30T08:28:30.627Z,1.85
2024-04-30T08:30:58.261Z,2.28
2024-04-30T08:33:26.052Z,2.03
2024-04-30T08:35:53.339Z,2.35
2024-04-30T08:38:20.636Z,3.15
2024-04-30T08:40:47.972Z,2.65
2024-04-30T08:43:16.516Z,3.72
2024-04-30T08:45:44.426Z,3.70
2024-04-30T08:48:13.295Z,2.50
2024-04-30T08:50:43.234Z,3.25
2024-04-30T08:53:12.500Z,2.80
2024-04-30T08:55:41.664Z,2.50
2024-04-30T08:58:09.710Z,3.97
2024-04-30T09:00:37.272Z,2.70
2024-04-30T09:03:05.208Z,2.88
2024-04-30T09:05:35.794Z,3.40
2024-04-30T09:08:04.375Z,2.40
2024-04-30T09:10:31.972Z,2.40
2024-04-30T09:13:02.478Z,2.50
2024-04-30T09:15:29.799Z,2.85
2024-04-30T09:18:09.530Z,3.53
2024-04-30T09:20:47.936Z,2.47
2024-04-30T09:23:26.977Z,3.13
2024-04-30T09:25:54.353Z,3.63
2024-04-30T09:28:22.230Z,2.72
2024-04-30T09:31:00.098Z,2.25
2024-04-30T09:33:29.089Z,2.10
2024-04-30T09:36:06.118Z,2.40
2024-04-30T09:38:38.578Z,3.17
2024-04-30T09:41:09.282Z,3.30
2024-04-30T09:43:36.829Z,2.38
2024-04-30T09:46:04.663Z,2.63
2024-04-30T09:48:32.998Z,2.40
2024-04-30T09:51:03.813Z,1.92
2024-04-30T09:53:33.595Z,2.95
2024-04-30T09:56:03.984Z,2.63
2024-04-30T09:58:31.891Z,3.72
2024-04-30T10:01:04.027Z,2.35
2024-04-30T10:03:34.946Z,3.05
2024-04-30T10:06:04.429Z,3.42
2024-04-30T10:08:32.228Z,3.67
2024-04-30T10:11:10.441Z,3.05
2024-04-30T10:13:54.340Z,3.13
2024-04-30T10:16:22.844Z,2.22
2024-04-30T10:19:01.488Z,2.60
2024-04-30T10:21:35.023Z,2.17
2024-04-30T10:24:21.538Z,2.70
2024-04-30T10:26:50.591Z,2.85
2024-04-30T10:29:18.429Z,2.15
2024-04-30T10:31:49.416Z,3.40
2024-04-30T10:34:17.684Z,2.78
2024-04-30T10:36:49.493Z,4.30
2024-04-30T10:39:27.178Z,2.45
2024-04-30T10:41:54.814Z,2.50
2024-04-30T10:44:22.081Z,3.13
2024-04-30T10:46:50.335Z,2.10
2024-04-30T10:49:23.263Z,2.25
2024-04-30T10:51:53.289Z,2.83
2024-04-30T10:54:20.727Z,2.80
2024-04-30T10:56:48.007Z,3.72
2024-04-30T10:59:15.281Z,3.15
2024-04-30T11:01:42.560Z,2.88
2024-04-30T11:04:11.906Z,3.65
2024-04-30T11:06:43.892Z,1.90
2024-04-30T11:09:12.754Z,2.22
2024-04-30T11:11:49.188Z,2.67
2024-04-30T11:14:21.151Z,1.85
2024-04-30T11:16:50.484Z,2.00
2024-04-30T11:19:18.086Z,1.90
2024-04-30T11:21:45.489Z,2.15
2024-04-30T11:24:12.808Z,3.22
2024-04-30T11:26:40.526Z,2.42
2024-04-30T11:29:23.298Z,2.22
2024-04-30T11:31:55.452Z,1.55
2024-04-30T11:34:22.752Z,1.60
2024-04-30T11:36:50.018Z,2.92
2024-04-30T11:39:17.776Z,2.08
2024-04-30T11:41:49.191Z,2.20
2024-04-30T11:44:24.541Z,1.70
2024-04-30T11:46:51.791Z,2.40
2024-04-30T11:49:19.114Z,2.95
2024-04-30T11:51:46.412Z,2.33
2024-04-30T11:54:13.717Z,2.30
2024-04-30T11:56:41.074Z,2.03
2024-04-30T11:59:08.364Z,2.28
2024-04-30T12:01:35.667Z,3.28
2024-04-30T12:04:02.994Z,2.17
2024-04-30T12:06:30.195Z,2.75
2024-04-30T12:08:57.504Z,2.88
2024-04-30T12:11:24.790Z,1.95
2024-04-30T12:13:55.208Z,4.20
2024-04-30T12:16:22.770Z,2.03
2024-04-30T12:18:50.036Z,3.65
2024-04-30T12:21:19.327Z,3.03
2024-04-30T12:23:49.239Z,3.15
2024-04-30T12:26:16.999Z,1.92
2024-04-30T12:28:44.919Z,2.78
2024-04-30T12:31:12.281Z,1.80
2024-04-30T12:33:39.560Z,3.00
2024-04-30T12:36:07.019Z,2.63
2024-04-30T12:38:34.641Z,2.40
2024-04-30T12:41:04.461Z,2.63
2024-04-30T12:43:35.716Z,3.03
2024-04-30T12:46:05.615Z,2.47
2024-04-30T12:48:33.297Z,2.28
2024-04-30T12:51:00.585Z,2.85
2024-04-30T12:53:29.439Z,2.40
2024-04-30T12:55:56.700Z,3.15
2024-04-30T12:58:23.964Z,2.28
2024-04-30T13:00:54.953Z,3.08
2024-04-30T13:03:22.586Z,2.67
2024-04-30T13:05:49.840Z,2.10
2024-04-30T13:08:17.133Z,2.10
2024-04-30T13:10:44.548Z,3.08
2024-04-30T13:13:11.867Z,3.00
2024-04-30T13:15:39.114Z,2.03
2024-04-30T13:18:06.614Z,2.08
2024-04-30T13:20:34.377Z,2.00
2024-04-30T13:23:01.671Z,2.03
2024-04-30T13:25:28.988Z,3.00
2024-04-30T13:27:56.273Z,2.45
2024-04-30T13:30:23.500Z,2.30
2024-04-30T13:32:50.860Z,2.88
2024-04-30T13:35:18.329Z,3.00
2024-04-30T13:37:45.704Z,2.55
2024-04-30T13:40:13.018Z,2.58
2024-04-30T13:42:40.355Z,2.80
2024-04-30T13:45:07.750Z,1.88
2024-04-30T13:47:35.104Z,2.22
2024-04-30T13:50:02.308Z,2.55
2024-04-30T13:52:29.606Z,1.65
2024-04-30T13:54:56.787Z,1.75
2024-04-30T13:57:24.067Z,3.55
2024-04-30T13:59:51.210Z,2.08
2024-04-30T14:02:18.667Z,1.67
2024-04-30T14:04:46.288Z,1.25
2024-04-30T14:07:13.592Z,2.03
2024-04-30T14:09:40.839Z,1.88
2024-04-30T14:12:08.557Z,1.90
2024-04-30T14:14:36.934Z,2.22
2024-04-30T14:17:04.751Z,1.88
2024-04-30T14:19:34.709Z,2.00
2024-04-30T14:22:02.879Z,1.55
2024-04-30T14:24:30.095Z,1.30
2024-04-30T14:26:57.362Z,2.08
2024-04-30T14:29:24.578Z,2.05
2024-04-30T14:31:51.925Z,2.33
2024-04-30T14:34:19.261Z,2.13
2024-04-30T14:36:46.564Z,1.92
2024-04-30T14:39:13.869Z,1.60
2024-04-30T14:41:45.373Z,1.30
2024-04-30T14:44:12.747Z,1.55
2024-04-30T14:46:41.627Z,2.35
2024-04-30T14:49:09.236Z,2.60
2024-04-30T14:51:37.948Z,1.90
2024-04-30T14:54:06.224Z,2.92
2024-04-30T14:56:34.467Z,2.33
2024-04-30T14:59:02.521Z,2.13
2024-04-30T15:01:30.315Z,3.47
2024-04-30T15:03:57.857Z,2.42
2024-04-30T15:06:25.612Z,2.58
2024-04-30T15:08:52.919Z,3.88
2024-04-30T15:11:21.031Z,2.10
2024-04-30T15:13:49.023Z,2.00
2024-04-30T15:16:17.398Z,1.83
2024-04-30T15:18:45.754Z,2.65
2024-04-30T15:21:13.120Z,1.95
2024-04-30T15:23:44.418Z,2.60
2024-04-30T15:26:12.880Z,1.75
2024-04-30T15:28:40.363Z,1.95
2024-04-30T15:31:08.560Z,2.25
2024-04-30T15:33:36.733Z,3.13
2024-04-30T15:36:08.382Z,2.15
2024-04-30T15:38:36.175Z,1.63
2024-04-30T15:41:03.490Z,3.30
2024-04-30T15:43:31.962Z,2.38
2024-04-30T15:46:00.403Z,2.30
2024-04-30T15:48:27.827Z,2.00
2024-04-30T15:50:55.161Z,1.80
2024-04-30T15:53:23.090Z,1.70
2024-04-30T15:56:05.071Z,2.60
2024-04-30T15:58:37.684Z,2.53
2024-04-30T16:01:05.647Z,1.63
2024-04-30T16:03:33.136Z,2.33
2024-04-30T16:06:00.386Z,2.15
2024-04-30T16:08:27.616Z,2.20
2024-04-30T16:10:54.979Z,2.65
2024-04-30T16:13:22.360Z,1.80
2024-04-30T16:16:00.168Z,2.67
2024-04-30T16:18:31.705Z,2.15
2024-04-30T16:20:58.943Z,2.10
2024-04-30T16:23:26.245Z,2.22
2024-04-30T16:25:53.505Z,2.30
2024-04-30T16:28:23.794Z,1.75
2024-04-30T16:30:51.149Z,2.20
2024-04-30T16:33:18.698Z,2.95
2024-04-30T16:35:46.007Z,2.92
2024-04-30T16:38:13.375Z,3.03
2024-04-30T16:40:40.656Z,2.67
2024-04-30T16:43:07.933Z,2.38
2024-04-30T16:45:35.395Z,2.30
2024-04-30T16:48:02.816Z,2.20
2024-04-30T16:50:30.139Z,3.10
2024-04-30T16:52:59.124Z,2.78
2024-04-30T16:55:26.942Z,1.77
2024-04-30T16:57:54.385Z,2.88
2024-04-30T17:00:21.719Z,3.22
2024-04-30T17:02:49.006Z,2.25
2024-04-30T17:05:16.310Z,2.90
2024-04-30T17:07:43.535Z,3.25
2024-04-30T17:10:16.905Z,1.90
2024-04-30T17:12:44.775Z,2.70
2024-04-30T17:15:12.044Z,2.80
2024-04-30T17:17:39.308Z,3.33
2024-04-30T17:20:07.250Z,2.85
2024-04-30T17:22:34.818Z,2.28
2024-04-30T17:25:02.108Z,3.28
2024-04-30T17:27:29.543Z,3.40
2024-04-30T17:29:56.771Z,2.55
2024-04-30T17:32:24.142Z,1.83
2024-04-30T17:34:51.559Z,2.28
2024-04-30T17:37:18.845Z,3.08
2024-04-30T17:39:46.173Z,2.03
2024-04-30T17:42:13.446Z,2.15
2024-04-30T17:44:40.727Z,1.80
2024-04-30T17:47:08.229Z,2.90
2024-04-30T17:49:35.496Z,2.38
2024-04-30T17:52:02.754Z,2.35
2024-04-30T17:54:30.098Z,2.38
2024-04-30T17:56:57.406Z,2.15
2024-04-30T17:59:26.892Z,2.45
2024-04-30T18:01:54.270Z,3.05
2024-04-30T18:04:22.748Z,2.92
2024-04-30T18:06:50.142Z,2.75
2024-04-30T18:09:17.440Z,3.70
2024-04-30T18:11:45.374Z,3.08
2024-04-30T18:14:12.719Z,2.95
2024-04-30T18:16:40.074Z,3.33
2024-04-30T18:19:10.742Z,1.92
2024-04-30T18:21:38.319Z,3.97
2024-04-30T18:24:07.705Z,3.92
2024-04-30T18:26:39.718Z,2.88
2024-04-30T18:29:07.075Z,2.50
2024-04-30T18:31:34.407Z,2.63
2024-04-30T18:34:02.310Z,3.65
2024-04-30T18:36:29.730Z,2.65
2024-04-30T18:38:57.132Z,3.58
2024-04-30T18:41:30.397Z,2.35
2024-04-30T18:43:59.547Z,3.83
2024-04-30T18:46:27.125Z,3.53
2024-04-30T18:48:54.752Z,4.47
2024-04-30T18:51:22.278Z,4.38
2024-04-30T18:53:50.069Z,3.65
2024-04-30T18:56:19.310Z,3.75
2024-04-30T18:58:47.410Z,6.13
2024-04-30T19:01:16.183Z,4.22
2024-04-30T19:03:46.027Z,3.85
2024-04-30T19:06:14.912Z,3.42
2024-04-30T19:08:42.135Z,3.50
2024-04-30T19:11:11.078Z,3.42
2024-04-30T19:13:38.456Z,5.82
2024-04-30T19:16:06.812Z,4.15
2024-04-30T19:18:37.170Z,5.75
2024-04-30T19:21:08.699Z,4.47
2024-04-30T19:23:36.092Z,3.28
2024-04-30T19:26:03.838Z,3.10
2024-04-30T19:28:31.153Z,4.45
2024-04-30T19:30:58.727Z,3.17
2024-04-30T19:33:26.271Z,2.85
2024-04-30T19:35:53.789Z,3.95
2024-04-30T19:38:21.060Z,4.95
2024-04-30T19:40:48.298Z,2.58
2024-04-30T19:43:16.125Z,3.85
2024-04-30T19:45:44.275Z,2.47
2024-04-30T19:48:16.923Z,4.25
2024-04-30T19:50:46.468Z,3.22
2024-04-30T19:53:13.703Z,2.78
2024-04-30T19:55:41.485Z,3.30
2024-04-30T19:58:09.796Z,2.80
2024-04-30T20:00:37.291Z,4.22
2024-04-30T20:03:05.000Z,3.17
2024-04-30T20:05:32.439Z,3.05
2024-04-30T20:08:00.579Z,2.20
2024-04-30T20:10:29.095Z,4.07
2024-04-30T20:12:56.699Z,3.40
2024-04-30T20:15:24.130Z,3.30
2024-04-30T20:17:51.619Z,3.30
2024-04-30T20:20:18.987Z,3.50
2024-04-30T20:22:46.397Z,3.08
2024-04-30T20:25:14.264Z,3.55
2024-04-30T20:27:42.001Z,3.47
2024-04-30T20:30:11.903Z,3.63
2024-04-30T20:32:40.828Z,2.55
2024-04-30T20:35:08.506Z,2.85
2024-04-30T20:37:35.881Z,3.20
2024-04-30T20:40:03.747Z,3.53
2024-04-30T20:42:31.186Z,4.40
2024-04-30T20:44:58.491Z,4.38
2024-04-30T20:47:26.109Z,3.22
2024-04-30T20:49:53.518Z,3.20
2024-04-30T20:52:20.768Z,3.28
2024-04-30T20:54:48.055Z,3.83
2024-04-30T20:57:15.370Z,4.70
2024-04-30T20:59:42.541Z,3.50
2024-04-30T21:02:10.240Z,4.32
2024-04-30T21:04:37.741Z,3.97
2024-04-30T21:07:05.434Z,3.53
2024-04-30T21:09:32.938Z,3.83
2024-04-30T21:12:00.220Z,2.80
2024-04-30T21:14:27.679Z,2.95
2024-04-30T21:16:54.896Z,3.10
2024-04-30T21:19:22.432Z,3.17
2024-04-30T21:21:49.948Z,2.58
2024-04-30T21:24:17.367Z,4.63
2024-04-30T21:26:44.702Z,4.55
2024-04-30T21:29:12.088Z,5.47
2024-04-30T21:31:39.406Z,4.15
2024-04-30T21:34:07.612Z,3.38
2024-04-30T21:36:35.752Z,3.45
2024-04-30T21:39:03.246Z,5.18
2024-04-30T21:41:30.514Z,3.85
2024-04-30T21:43:57.778Z,7.80
2024-04-30T21:46:25.038Z,4.78
2024-04-30T21:48:52.371Z,4.97
2024-04-30T21:51:21.226Z,2.92
2024-04-30T21:53:48.835Z,2.63
2024-04-30T21:56:16.089Z,4.97
2024-04-30T21:58:43.314Z,4.10
2024-04-30T22:01:13.069Z,3.28
2024-04-30T22:03:41.337Z,4.50
2024-04-30T22:06:08.685Z,3.55
2024-04-30T22:08:38.938Z,3.33
2024-04-30T22:11:06.792Z,3.42
2024-04-30T22:13:34.520Z,3.60
2024-04-30T22:16:02.971Z,4.22
2024-04-30T22:18:33.909Z,5.20
2024-04-30T22:21:01.206Z,4.55
2024-04-30T22:23:30.905Z,4.47
2024-04-30T22:25:59.477Z,4.82
2024-04-30T22:28:26.826Z,4.40
2024-04-30T22:30:54.312Z,4.45
2024-04-30T22:33:21.662Z,3.70
2024-04-30T22:35:49.083Z,3.75
2024-04-30T22:38:16.586Z,3.80
2024-04-30T22:40:43.915Z,3.55
2024-04-30T22:43:11.177Z,3.53
2024-04-30T22:45:38.901Z,3.10
2024-04-30T22:48:06.816Z,4.32
2024-04-30T22:50:34.133Z,3.38
2024-04-30T22:53:01.373Z,3.10
2024-04-30T22:55:28.656Z,3.58
2024-04-30T22:57:55.902Z,4.90
2024-04-30T23:00:23.333Z,3.63
2024-04-30T23:02:50.647Z,3.67
2024-04-30T23:05:18.031Z,3.35
2024-04-30T23:07:45.293Z,4.03
2024-04-30T23:10:12.608Z,3.95
2024-04-30T23:12:39.910Z,3.45
2024-04-30T23:15:07.259Z,3.20
2024-04-30T23:17:35.356Z,6.30
2024-04-30T23:20:02.629Z,3.72
2024-04-30T23:22:29.821Z,4.55
2024-04-30T23:24:57.131Z,4.05
2024-04-30T23:27:24.409Z,3.45
2024-04-30T23:29:51.714Z,5.45
2024-04-30T23:32:18.915Z,3.83
2024-04-30T23:34:46.200Z,3.20
2024-04-30T23:37:13.499Z,3.30
2024-04-30T23:39:40.832Z,2.60
2024-04-30T23:42:09.094Z,2.80
2024-04-30T23:44:36.781Z,3.80
2024-04-30T23:47:04.507Z,3.67
2024-04-30T23:49:31.857Z,3.10
2024-04-30T23:51:59.222Z,3.20
2024-04-30T23:54:27.268Z,2.90
2024-04-30T23:56:54.676Z,3.60
2024-04-30T23:59:22.827Z,4.80
